Folla — LLPD — position and weather

sailwx.info

Track history (hours):
 
Tides and Currents Weather Stations Pressure Air Temp Water Temp Dewpoint Dewpoint Depression Visibility Wind Speed Wind Dir Waves Ship Positions

Folla

Last reported at 2015-Jul-29 15:31 UTC. Time now 2015-Jul-29 22:00 UTC.
Position N 64°38' E 011°13'.

Length 52 m; draft 5 m.

Type: Cargo ship. MMSI: 258253000.

Date/timePositionNaut miles runAvg speedWind from/ knotsBaromVisibWave heightAir tempDewpointWater temp
2015-Jul-29 15:31N 64°38' E 011°13'1010.6
2015-Jul-29 14:34N 64°47' E 011°05'6 6.0
2015-Jul-29 13:33N 64°52' E 011°14'0 0.1
2015-Jul-29 12:34N 64°52' E 011°15'2 1.5
2015-Jul-29 11:33N 64°53' E 011°17'9 9.3
2015-Jul-29 10:33N 64°58' E 011°36'6 6.0
2015-Jul-29 09:34N 65°03' E 011°43'1311.6
2015-Jul-29 08:25N 65°15' E 011°56'6610.8
2015-Jul-29 02:17N 66°17' E 012°55'810.8
2015-Jul-29 01:33N 66°25' E 012°58'34 8.4
2015-Jul-28 21:28N 66°57' E 013°29'1011.1
2015-Jul-28 20:32N 67°03' E 013°50'1111.0
2015-Jul-28 19:33N 67°12' E 014°06'1211.7
2015-Jul-28 18:33N 67°22' E 014°22'15 0.5
2015-Jul-27 13:16N 67°37' E 014°30'811.4
2015-Jul-27 12:33N 67°29' E 014°28'1111.1
2015-Jul-27 11:34N 67°18' E 014°21'2 1.5
2015-Jul-27 10:34N 67°16' E 014°21'0 0.0
2015-Jul-27 09:33N 67°16' E 014°21'0 0.0
2015-Jul-27 08:34N 67°16' E 014°21'0 0.0
2015-Jul-27 07:34N 67°16' E 014°21'0 0.0
2015-Jul-27 06:33N 67°16' E 014°21'1110.5
2015-Jul-27 05:34N 67°09' E 014°01'0 0.4
2015-Jul-27 04:34N 67°09' E 014°01'0 0.0
2015-Jul-27 03:34N 67°09' E 014°01'8 8.2
2015-Jul-27 02:34N 67°17' E 014°05'1111.0
2015-Jul-27 01:33N 67°28' E 014°11'16910.6
2015-Jul-26 09:34N 69°40' E 018°60'1 0.1
2015-Jul-25 15:33N 69°41' E 018°59'4 3.7
2015-Jul-25 14:33N 69°37' E 018°55'182 6.0
2015-Jul-24 08:15N 67°21' E 013°25'2511.6
2015-Jul-24 06:09N 66°57' E 013°20'24 6.6
2015-Jul-24 02:30N 66°34' E 012°57'1111.7
2015-Jul-24 01:33N 66°24' E 012°46'6 6.3
2015-Jul-24 00:33N 66°24' E 012°30'7 7.2
2015-Jul-23 23:33N 66°18' E 012°23'14 5.8
2015-Jul-23 21:05N 66°07' E 012°45'46 9.9
2015-Jul-23 16:27N 65°23' E 012°07'1111.9
2015-Jul-23 15:33N 65°14' E 011°55'1111.5
2015-Jul-23 14:34N 65°03' E 011°45'1211.6
2015-Jul-23 13:33N 64°55' E 011°25'9 8.9
2015-Jul-23 12:33N 64°49' E 011°09'1110.5
2015-Jul-23 11:33N 64°39' E 011°09'7 0.3
2015-Jul-22 09:16N 64°34' E 011°20'7 9.8
2015-Jul-22 08:33N 64°39' E 011°09'1010.1
2015-Jul-22 07:33N 64°49' E 011°08'5 4.9
2015-Jul-22 06:33N 64°52' E 011°17'0 0.0
2015-Jul-22 05:33N 64°52' E 011°17'0 0.0
2015-Jul-22 04:33N 64°52' E 011°17'0 0.0
2015-Jul-22 03:33N 64°52' E 011°17'0 0.0
2015-Jul-22 02:34N 64°52' E 011°17'0 0.0
2015-Jul-22 01:33N 64°52' E 011°17'0 0.0
2015-Jul-22 00:33N 64°52' E 011°17'0 0.0
2015-Jul-21 23:33N 64°52' E 011°17'0 0.0
2015-Jul-21 22:33N 64°52' E 011°17'0 0.0
2015-Jul-21 21:33N 64°52' E 011°17'0 0.0
2015-Jul-21 20:33N 64°52' E 011°17'0 0.0
2015-Jul-21 19:33N 64°52' E 011°17'0 0.0
2015-Jul-21 18:33N 64°52' E 011°17'0 0.0
2015-Jul-21 17:33N 64°52' E 011°17'0 0.0
2015-Jul-21 16:33N 64°52' E 011°17'0 0.0
2015-Jul-21 15:33N 64°52' E 011°17'0 0.0
2015-Jul-21 14:33N 64°52' E 011°17'0 0.0
2015-Jul-21 13:33N 64°52' E 011°17'0 0.0
2015-Jul-21 12:33N 64°52' E 011°17'0 0.0
2015-Jul-21 11:33N 64°52' E 011°17'0 0.0
2015-Jul-21 10:33N 64°52' E 011°17'0 0.0
2015-Jul-21 09:33N 64°52' E 011°17'0 0.0
2015-Jul-21 08:33N 64°52' E 011°17'0 0.0
2015-Jul-21 07:33N 64°52' E 011°17'0 0.0
2015-Jul-21 06:33N 64°52' E 011°17'0 0.0
2015-Jul-21 05:34N 64°52' E 011°17'0 0.0
2015-Jul-21 04:33N 64°52' E 011°17'0 0.0
2015-Jul-21 03:33N 64°52' E 011°17'0 0.0
2015-Jul-21 02:33N 64°52' E 011°17'0 0.0
2015-Jul-21 01:33N 64°52' E 011°17'0 0.0
2015-Jul-21 00:33N 64°52' E 011°17'0 0.0
2015-Jul-20 23:33N 64°52' E 011°17'0 0.0
2015-Jul-20 22:34N 64°52' E 011°17'0 0.0
2015-Jul-20 21:34N 64°52' E 011°17'0 0.0
2015-Jul-20 20:33N 64°52' E 011°17'0 0.0
2015-Jul-20 19:33N 64°52' E 011°17'0 0.0
2015-Jul-20 18:34N 64°52' E 011°17'0 0.0
2015-Jul-20 17:33N 64°52' E 011°17'0 0.0
2015-Jul-20 16:33N 64°52' E 011°17'0 0.0
2015-Jul-20 15:33N 64°52' E 011°17'0 0.0
2015-Jul-20 14:33N 64°52' E 011°17'0 0.0
2015-Jul-20 13:34N 64°52' E 011°17'1 1.0
2015-Jul-20 12:34N 64°52' E 011°17'10 9.1
2015-Jul-20 11:30N 64°58' E 011°36'5 5.7
2015-Jul-20 10:33N 64°55' E 011°24'6 5.7
2015-Jul-20 09:33N 64°52' E 011°14'1010.0
2015-Jul-20 08:33N 64°58' E 011°32'1111.2
2015-Jul-20 07:33N 65°07' E 011°49'8210.2
2015-Jul-19 23:33N 66°24' E 012°58'35 5.8
2015-Jul-19 17:31N 66°57' E 013°29'1010.8
2015-Jul-19 16:33N 67°03' E 013°50'1010.4
2015-Jul-19 15:33N 67°11' E 014°07'  
Track history (hours):
 
Tides and Currents Weather Stations Pressure Air Temp Water Temp Dewpoint Dewpoint Depression Visibility Wind Speed Wind Dir Waves Ship Positions

Folla

Last reported at 2015-Jul-29 15:31 UTC. Time now 2015-Jul-29 22:00 UTC.
Position N 64°38' E 011°13'.

Length 52 m; draft 5 m.

Type: Cargo ship. MMSI: 258253000.

Date/timePositionNaut miles runAvg speedWind from/ knotsBaromVisibWave heightAir tempDewpointWater temp
2015-Jul-29 15:31N 64°38' E 011°13'1010.6
2015-Jul-29 14:34N 64°47' E 011°05'6 6.0
2015-Jul-29 13:33N 64°52' E 011°14'0 0.1
2015-Jul-29 12:34N 64°52' E 011°15'2 1.5
2015-Jul-29 11:33N 64°53' E 011°17'9 9.3
2015-Jul-29 10:33N 64°58' E 011°36'6 6.0
2015-Jul-29 09:34N 65°03' E 011°43'1311.6
2015-Jul-29 08:25N 65°15' E 011°56'6610.8
2015-Jul-29 02:17N 66°17' E 012°55'810.8
2015-Jul-29 01:33N 66°25' E 012°58'34 8.4
2015-Jul-28 21:28N 66°57' E 013°29'1011.1
2015-Jul-28 20:32N 67°03' E 013°50'1111.0
2015-Jul-28 19:33N 67°12' E 014°06'1211.7
2015-Jul-28 18:33N 67°22' E 014°22'15 0.5
2015-Jul-27 13:16N 67°37' E 014°30'811.4
2015-Jul-27 12:33N 67°29' E 014°28'1111.1
2015-Jul-27 11:34N 67°18' E 014°21'2 1.5
2015-Jul-27 10:34N 67°16' E 014°21'0 0.0
2015-Jul-27 09:33N 67°16' E 014°21'0 0.0
2015-Jul-27 08:34N 67°16' E 014°21'0 0.0
2015-Jul-27 07:34N 67°16' E 014°21'0 0.0
2015-Jul-27 06:33N 67°16' E 014°21'1110.5
2015-Jul-27 05:34N 67°09' E 014°01'0 0.4
2015-Jul-27 04:34N 67°09' E 014°01'0 0.0
2015-Jul-27 03:34N 67°09' E 014°01'8 8.2
2015-Jul-27 02:34N 67°17' E 014°05'1111.0
2015-Jul-27 01:33N 67°28' E 014°11'16910.6
2015-Jul-26 09:34N 69°40' E 018°60'1 0.1
2015-Jul-25 15:33N 69°41' E 018°59'4 3.7
2015-Jul-25 14:33N 69°37' E 018°55'182 6.0
2015-Jul-24 08:15N 67°21' E 013°25'2511.6
2015-Jul-24 06:09N 66°57' E 013°20'24 6.6
2015-Jul-24 02:30N 66°34' E 012°57'1111.7
2015-Jul-24 01:33N 66°24' E 012°46'6 6.3
2015-Jul-24 00:33N 66°24' E 012°30'7 7.2
2015-Jul-23 23:33N 66°18' E 012°23'14 5.8
2015-Jul-23 21:05N 66°07' E 012°45'46 9.9
2015-Jul-23 16:27N 65°23' E 012°07'1111.9
2015-Jul-23 15:33N 65°14' E 011°55'1111.5
2015-Jul-23 14:34N 65°03' E 011°45'1211.6
2015-Jul-23 13:33N 64°55' E 011°25'9 8.9
2015-Jul-23 12:33N 64°49' E 011°09'1110.5
2015-Jul-23 11:33N 64°39' E 011°09'7 0.3
2015-Jul-22 09:16N 64°34' E 011°20'7 9.8
2015-Jul-22 08:33N 64°39' E 011°09'1010.1
2015-Jul-22 07:33N 64°49' E 011°08'5 4.9
2015-Jul-22 06:33N 64°52' E 011°17'0 0.0
2015-Jul-22 05:33N 64°52' E 011°17'0 0.0
2015-Jul-22 04:33N 64°52' E 011°17'0 0.0
2015-Jul-22 03:33N 64°52' E 011°17'0 0.0
2015-Jul-22 02:34N 64°52' E 011°17'0 0.0
2015-Jul-22 01:33N 64°52' E 011°17'0 0.0
2015-Jul-22 00:33N 64°52' E 011°17'0 0.0
2015-Jul-21 23:33N 64°52' E 011°17'0 0.0
2015-Jul-21 22:33N 64°52' E 011°17'0 0.0
2015-Jul-21 21:33N 64°52' E 011°17'0 0.0
2015-Jul-21 20:33N 64°52' E 011°17'0 0.0
2015-Jul-21 19:33N 64°52' E 011°17'0 0.0
2015-Jul-21 18:33N 64°52' E 011°17'0 0.0
2015-Jul-21 17:33N 64°52' E 011°17'0 0.0
2015-Jul-21 16:33N 64°52' E 011°17'0 0.0
2015-Jul-21 15:33N 64°52' E 011°17'0 0.0
2015-Jul-21 14:33N 64°52' E 011°17'0 0.0
2015-Jul-21 13:33N 64°52' E 011°17'0 0.0
2015-Jul-21 12:33N 64°52' E 011°17'0 0.0
2015-Jul-21 11:33N 64°52' E 011°17'0 0.0
2015-Jul-21 10:33N 64°52' E 011°17'0 0.0
2015-Jul-21 09:33N 64°52' E 011°17'0 0.0
2015-Jul-21 08:33N 64°52' E 011°17'0 0.0
2015-Jul-21 07:33N 64°52' E 011°17'0 0.0
2015-Jul-21 06:33N 64°52' E 011°17'0 0.0
2015-Jul-21 05:34N 64°52' E 011°17'0 0.0
2015-Jul-21 04:33N 64°52' E 011°17'0 0.0
2015-Jul-21 03:33N 64°52' E 011°17'0 0.0
2015-Jul-21 02:33N 64°52' E 011°17'0 0.0
2015-Jul-21 01:33N 64°52' E 011°17'0 0.0
2015-Jul-21 00:33N 64°52' E 011°17'0 0.0
2015-Jul-20 23:33N 64°52' E 011°17'0 0.0
2015-Jul-20 22:34N 64°52' E 011°17'0 0.0
2015-Jul-20 21:34N 64°52' E 011°17'0 0.0
2015-Jul-20 20:33N 64°52' E 011°17'0 0.0
2015-Jul-20 19:33N 64°52' E 011°17'0 0.0
2015-Jul-20 18:34N 64°52' E 011°17'0 0.0
2015-Jul-20 17:33N 64°52' E 011°17'0 0.0
2015-Jul-20 16:33N 64°52' E 011°17'0 0.0
2015-Jul-20 15:33N 64°52' E 011°17'0 0.0
2015-Jul-20 14:33N 64°52' E 011°17'0 0.0
2015-Jul-20 13:34N 64°52' E 011°17'1 1.0
2015-Jul-20 12:34N 64°52' E 011°17'10 9.1
2015-Jul-20 11:30N 64°58' E 011°36'5 5.7
2015-Jul-20 10:33N 64°55' E 011°24'6 5.7
2015-Jul-20 09:33N 64°52' E 011°14'1010.0
2015-Jul-20 08:33N 64°58' E 011°32'1111.2
2015-Jul-20 07:33N 65°07' E 011°49'8210.2
2015-Jul-19 23:33N 66°24' E 012°58'35 5.8
2015-Jul-19 17:31N 66°57' E 013°29'1010.8
2015-Jul-19 16:33N 67°03' E 013°50'1010.4
2015-Jul-19 15:33N 67°11' E 014°07'  

Dump ship's entire track history